Ottawa, Ontario

00:32 EST dnia 18-grudzień-2014 (GMT -0500)
Ottawa-Macdonald-Cartier International | Change Station
CLOSE
Current Station
Lotnisko
Location: Ottawa International,
n.p.m.: 374 ft
Najbliższa stacja pogodowa

Wysokość 374 ft 45.32 °N, 75.67 °W | Updated 18 minutes ago

Light Snow
lekki śnieżek
32 ° F
Odczuwalna 24 ° F
Płn.
9
Wiatr zmienny Wiatr od zachodni

Prognoza na dziś: prawie taka sama temperatura jak wczoraj.

Dziś
Wysoka -- | Niska -- ° F
--% Prawdop. opadów
Wczoraj
Wysoka -- | Niska -- ° F
Precip. -- cali
7:37 AM 4:21 PM
Zmniejszający się sierp Księżyca, 17% visible
Ciśnienie 29.80 cali
Widzialność 4.0 mil
chmury pochmurno 200 ft
czynnik chłodzący wiatru 24 ° F
Punkt rosy 32 ° F
Wilgotność 100%
Opady deszczu 0.00 cali
grubość pokrywy śnieżnej Niedostępne.
UV 0 z 12
Pyłki Niedostępne.
Jakość powietrza Niedostępne.
Flu Activity Niedostępne.
SPECI CYOW 180514Z 27008KT 4SM -SN BR OVC002 00/M00 A2979 RMK SF8 SLP091

More Conditions Fewer Conditions

Ciśnienie 29.80 cali
Widzialność 4.0 mil
chmury pochmurno 200 ft
czynnik chłodzący wiatru 24 ° F
Punkt rosy 32 ° F
Wilgotność 100%
Opady deszczu 0.00 cali
grubość pokrywy śnieżnej Niedostępne.
UV 0 z 12
Pyłki Niedostępne.
Jakość powietrza Niedostępne.
Flu Activity Niedostępne.
SPECI CYOW 180514Z 27008KT 4SM -SN BR OVC002 00/M00 A2979 RMK SF8 SLP091

More Conditions Fewer Conditions

10-Day Weather Forecast

Almanac

Astronomia

Dec. 18, 2014 Wschód Zachów
Aktualny czas
Zmierzch cywilny
Zmierzch żeglarski
świt/zmierzch astronomiczny
Księżyc
całkowite oświetlenie
Długość dnia
Tomorrow will be .
, % of the Moon is Illuminated

Dzisiejsze ekstrema

Country Highs Country Lows

Community

WunderPhotos

Upload Photos

1,778,895 zdjęcia zostały przesłane!

WunderBlogs® & News

Nearby

Jakość powietrza

  Jakość powietrza czynnik AQ Zanieczyszczenie
Not available.

Głębokość pokrywy śnieżnej

Station Depth n.p.m.

Aktywność sejsmiczna

Miejscowość Distance Mag. Time & Date
Minimum magnitude displayed is 2.5.

Temperatury wody na wybrzeżu

Miejsce Temperatura

Najbliższa stacja pogodowa